createdAt,value
2022-12-05T00:02:39.079Z,4.67
2022-12-05T00:06:04.090Z,4.58
2022-12-05T00:09:20.093Z,4.17
2022-12-05T00:12:44.719Z,4.20
2022-12-05T00:16:06.494Z,4.03
2022-12-05T00:19:56.792Z,4.45
2022-12-05T00:23:18.584Z,5.15
2022-12-05T00:27:27.573Z,5.70
2022-12-05T00:31:21.567Z,4.75
2022-12-05T00:38:08.923Z,4.33
2022-12-05T00:41:51.323Z,4.33
2022-12-05T00:45:14.257Z,3.75
2022-12-05T00:48:41.644Z,4.12
2022-12-05T00:52:01.447Z,4.15
2022-12-05T00:55:17.735Z,4.30
2022-12-05T00:58:38.656Z,3.95
2022-12-05T01:01:58.258Z,4.10
2022-12-05T01:05:12.501Z,4.72
2022-12-05T01:08:25.982Z,3.83
2022-12-05T01:11:52.067Z,4.37
2022-12-05T01:15:13.322Z,4.22
2022-12-05T01:18:57.068Z,4.28
2022-12-05T01:22:10.584Z,4.00
2022-12-05T01:25:41.444Z,4.62
2022-12-05T01:28:58.109Z,4.55
2022-12-05T01:32:20.219Z,4.87
2022-12-05T01:35:38.215Z,3.80
2022-12-05T01:43:22.873Z,4.53
2022-12-05T01:51:02.811Z,5.17
2022-12-05T01:54:44.595Z,4.62
2022-12-05T01:58:23.051Z,4.95
2022-12-05T02:01:51.903Z,4.97
2022-12-05T02:05:27.734Z,4.03
2022-12-05T02:08:48.082Z,5.37
2022-12-05T02:12:17.176Z,4.25
2022-12-05T02:15:57.077Z,4.65
2022-12-05T02:19:26.638Z,4.90
2022-12-05T02:23:37.649Z,3.92
2022-12-05T02:27:07.357Z,4.53
2022-12-05T02:30:32.121Z,4.47
2022-12-05T02:34:14.158Z,4.65
2022-12-05T02:38:04.800Z,4.40
2022-12-05T02:41:32.421Z,4.20
2022-12-05T02:45:12.514Z,4.75
2022-12-05T02:48:29.979Z,4.70
2022-12-05T02:51:45.740Z,4.55
2022-12-05T02:55:04.301Z,3.83
2022-12-05T02:58:31.512Z,4.40
2022-12-05T03:01:54.978Z,4.33
2022-12-05T03:09:03.503Z,4.00
2022-12-05T03:12:41.770Z,3.62
2022-12-05T03:16:04.645Z,4.37
2022-12-05T03:19:42.822Z,4.05
2022-12-05T03:23:22.638Z,4.35
2022-12-05T03:27:16.900Z,3.83
2022-12-05T03:30:57.273Z,4.28
2022-12-05T03:34:15.225Z,4.42
2022-12-05T03:38:06.773Z,3.75
2022-12-05T03:45:24.691Z,4.37
2022-12-05T03:49:23.175Z,8.00
2022-12-05T03:53:18.526Z,5.53
2022-12-05T03:56:38.163Z,4.12
2022-12-05T03:59:59.598Z,4.03
2022-12-05T04:03:34.103Z,4.00
2022-12-05T04:07:07.071Z,4.30
2022-12-05T04:10:25.950Z,3.95
2022-12-05T04:14:07.766Z,3.70
2022-12-05T04:17:36.470Z,3.33
2022-12-05T04:21:15.277Z,4.45
2022-12-05T04:24:54.265Z,5.12
2022-12-05T04:28:53.563Z,6.60
2022-12-05T04:32:25.863Z,5.67
2022-12-05T04:35:46.081Z,5.20
2022-12-05T04:39:20.516Z,4.05
2022-12-05T04:42:40.183Z,4.80
2022-12-05T04:45:55.867Z,4.90
2022-12-05T04:49:16.513Z,5.03
2022-12-05T04:52:38.403Z,4.42
2022-12-05T04:55:52.044Z,4.47
2022-12-05T04:59:14.681Z,7.50
2022-12-05T05:02:34.459Z,5.80
2022-12-05T05:05:55.220Z,5.70
2022-12-05T05:09:22.368Z,4.37
2022-12-05T05:12:48.744Z,5.15
2022-12-05T05:19:20.941Z,6.70
2022-12-05T05:22:54.268Z,7.70
2022-12-05T05:26:22.097Z,7.08
2022-12-05T05:29:56.426Z,8.05
2022-12-05T05:33:30.187Z,11.05
2022-12-05T05:50:55.403Z,7.30
2022-12-05T05:54:17.300Z,8.65
2022-12-05T05:58:10.521Z,5.03
2022-12-05T06:02:03.942Z,4.25
2022-12-05T06:13:35.950Z,4.50
2022-12-05T06:17:09.448Z,4.42
2022-12-05T06:20:22.251Z,4.75
2022-12-05T06:23:43.624Z,5.05
2022-12-05T06:27:07.139Z,4.60
2022-12-05T07:04:00.982Z,5.60
2022-12-05T07:07:18.222Z,4.65
2022-12-05T07:14:46.221Z,5.55
2022-12-05T07:17:46.614Z,5.12
2022-12-05T07:21:17.282Z,4.65
2022-12-05T07:24:27.200Z,4.92
2022-12-05T07:27:38.388Z,5.83
2022-12-05T07:30:47.190Z,4.85
2022-12-05T07:33:57.874Z,7.37
2022-12-05T07:51:58.292Z,4.72
2022-12-05T07:55:18.023Z,4.80
2022-12-05T07:58:40.720Z,3.80
2022-12-05T08:01:58.434Z,3.50
2022-12-05T08:05:16.734Z,5.53
2022-12-05T08:16:11.305Z,4.25
2022-12-05T08:19:34.603Z,4.65
2022-12-05T08:22:55.564Z,3.72
2022-12-05T08:30:09.509Z,4.72
2022-12-05T08:33:21.553Z,4.33
2022-12-05T08:36:32.436Z,3.85
2022-12-05T08:39:43.663Z,3.42
2022-12-05T08:42:56.524Z,3.85
2022-12-05T08:46:19.461Z,7.97
2022-12-05T08:49:33.165Z,4.87
2022-12-05T08:52:53.240Z,4.12
2022-12-05T08:56:04.803Z,4.17
2022-12-05T08:59:18.329Z,3.70
2022-12-05T09:02:33.301Z,3.90
2022-12-05T09:05:53.798Z,4.30
2022-12-05T09:09:13.639Z,3.70
2022-12-05T09:20:34.421Z,4.85
2022-12-05T09:24:32.667Z,5.00
2022-12-05T09:28:00.530Z,4.40
2022-12-05T09:31:26.066Z,4.72
2022-12-05T09:34:49.204Z,4.47
2022-12-05T09:38:06.701Z,4.35
2022-12-05T09:45:32.660Z,4.05
2022-12-05T09:48:53.246Z,4.72
2022-12-05T09:52:09.059Z,3.50
2022-12-05T09:55:34.105Z,4.47
2022-12-05T09:59:18.620Z,4.30
2022-12-05T10:02:12.231Z,3.77
2022-12-05T10:15:02.537Z,3.92
2022-12-05T10:19:20.341Z,4.53
2022-12-05T10:29:07.602Z,4.87
2022-12-05T10:35:10.466Z,3.15
2022-12-05T10:41:28.055Z,3.95
2022-12-05T10:44:53.670Z,4.03
2022-12-05T10:56:42.523Z,3.95
2022-12-05T11:27:44.330Z,3.20
2022-12-05T11:30:55.210Z,3.45
2022-12-05T11:38:10.737Z,4.15
2022-12-05T11:41:55.458Z,6.45
2022-12-05T11:45:52.586Z,3.37
2022-12-05T11:53:18.525Z,6.35
2022-12-05T11:56:52.516Z,4.15
2022-12-05T12:00:21.049Z,4.00
2022-12-05T12:04:27.253Z,4.62
2022-12-05T12:08:26.233Z,4.05
2022-12-05T12:12:15.199Z,3.42
2022-12-05T12:16:05.192Z,7.00
2022-12-05T12:19:44.739Z,5.90
2022-12-05T12:23:12.856Z,8.78
2022-12-05T12:26:59.611Z,6.62
2022-12-05T12:30:46.342Z,6.03
2022-12-05T12:54:54.727Z,7.17
2022-12-05T12:58:28.157Z,4.35
2022-12-05T13:02:15.678Z,3.67
2022-12-05T13:06:18.128Z,4.85
2022-12-05T13:10:08.691Z,3.92
2022-12-05T13:21:26.914Z,6.12
2022-12-05T13:25:09.339Z,4.45
2022-12-05T13:37:35.474Z,4.03
2022-12-05T13:41:52.619Z,4.28
2022-12-05T13:53:24.684Z,5.67
2022-12-05T13:57:30.683Z,5.17
2022-12-05T14:01:05.753Z,9.45
2022-12-05T14:16:36.966Z,4.90
2022-12-05T14:23:56.719Z,8.23
2022-12-05T14:27:55.018Z,8.30
2022-12-05T14:31:21.972Z,6.53
2022-12-05T14:35:07.806Z,6.78
2022-12-05T14:39:10.184Z,6.65
2022-12-05T14:42:56.485Z,6.47
2022-12-05T14:51:10.428Z,7.28
2022-12-05T14:54:52.266Z,7.25
2022-12-05T14:59:06.001Z,7.87
2022-12-05T15:06:36.727Z,8.13
2022-12-05T15:10:33.223Z,11.38
2022-12-05T15:14:18.275Z,11.15
2022-12-05T15:17:51.515Z,9.63
2022-12-05T15:25:07.434Z,9.35
2022-12-05T15:42:31.392Z,7.85
2022-12-05T15:46:35.109Z,7.72
2022-12-05T16:04:12.792Z,6.67
2022-12-05T16:07:32.574Z,8.45
2022-12-05T16:11:05.539Z,7.05
2022-12-05T16:27:02.357Z,5.55
2022-12-05T16:34:02.235Z,6.72
2022-12-05T17:30:37.986Z,4.15
2022-12-05T17:34:20.835Z,3.83
2022-12-05T17:37:47.592Z,3.98
2022-12-05T17:41:40.454Z,3.87
2022-12-05T17:45:02.320Z,3.62
2022-12-05T17:48:41.800Z,4.03
2022-12-05T17:52:25.401Z,4.05
2022-12-05T17:55:57.476Z,5.40
2022-12-05T17:59:56.785Z,4.25
2022-12-05T18:06:55.138Z,3.70
2022-12-05T18:10:25.774Z,3.90
2022-12-05T18:13:49.073Z,4.53
